createdAt,value
2022-11-18T00:01:09.491Z,10.70
2022-11-18T00:02:45.719Z,10.70
2022-11-18T00:04:26.988Z,10.60
2022-11-18T00:06:11.825Z,10.50
2022-11-18T00:07:47.848Z,10.60
2022-11-18T00:09:24.642Z,10.60
2022-11-18T00:11:06.282Z,10.60
2022-11-18T00:12:42.178Z,10.60
2022-11-18T00:14:21.815Z,10.60
2022-11-18T00:16:01.349Z,10.60
2022-11-18T00:17:37.741Z,10.60
2022-11-18T00:19:13.646Z,10.60
2022-11-18T00:20:49.449Z,10.60
2022-11-18T00:22:29.757Z,10.60
2022-11-18T00:24:05.793Z,10.50
2022-11-18T00:25:44.424Z,10.50
2022-11-18T00:27:19.137Z,10.50
2022-11-18T00:28:55.231Z,10.50
2022-11-18T00:30:29.797Z,10.60
2022-11-18T00:32:06.305Z,10.60
2022-11-18T00:33:41.911Z,10.60
2022-11-18T00:35:18.036Z,10.60
2022-11-18T00:36:53.327Z,10.60
2022-11-18T00:38:30.490Z,10.60
2022-11-18T00:40:08.654Z,10.60
2022-11-18T00:41:46.518Z,10.60
2022-11-18T00:43:22.292Z,10.60
2022-11-18T00:44:58.500Z,10.60
2022-11-18T00:46:34.379Z,10.60
2022-11-18T00:48:09.496Z,10.50
2022-11-18T00:49:44.958Z,10.50
2022-11-18T00:51:25.471Z,10.50
2022-11-18T00:53:00.251Z,10.50
2022-11-18T00:54:36.299Z,10.40
2022-11-18T00:56:12.373Z,10.40
2022-11-18T00:57:49.213Z,10.40
2022-11-18T00:59:24.228Z,10.40
2022-11-18T01:00:59.366Z,10.50
2022-11-18T01:02:34.854Z,10.50
2022-11-18T01:04:15.793Z,10.50
2022-11-18T01:05:56.546Z,10.40
2022-11-18T01:07:32.745Z,10.50
2022-11-18T01:09:08.830Z,10.40
2022-11-18T01:10:46.847Z,10.40
2022-11-18T01:12:22.895Z,10.40
2022-11-18T01:13:59.933Z,10.40
2022-11-18T01:15:39.611Z,10.40
2022-11-18T01:17:16.018Z,10.40
2022-11-18T01:18:51.706Z,10.50
2022-11-18T01:20:27.719Z,10.50
2022-11-18T01:22:03.851Z,10.40
2022-11-18T01:23:40.233Z,10.50
2022-11-18T01:25:15.576Z,10.50
2022-11-18T01:26:52.048Z,10.30
2022-11-18T01:28:27.679Z,10.30
2022-11-18T01:30:07.109Z,10.40
2022-11-18T01:32:02.099Z,10.40
2022-11-18T01:33:38.896Z,10.40
2022-11-18T01:35:13.957Z,10.40
2022-11-18T01:36:48.861Z,10.40
2022-11-18T01:38:24.205Z,10.40
2022-11-18T01:40:00.175Z,10.40
2022-11-18T01:41:35.789Z,10.40
2022-11-18T01:43:14.116Z,10.40
2022-11-18T01:45:29.236Z,10.40
2022-11-18T01:47:05.432Z,10.40
2022-11-18T01:48:40.762Z,10.40
2022-11-18T01:50:01.712Z,10.40
2022-11-18T01:51:44.052Z,10.40
2022-11-18T01:53:09.045Z,10.40
2022-11-18T01:54:33.981Z,10.40
2022-11-18T01:55:59.115Z,10.40
2022-11-18T01:57:22.549Z,10.40
2022-11-18T01:58:47.280Z,10.40
2022-11-18T02:00:11.342Z,10.40
2022-11-18T02:01:32.225Z,10.40
2022-11-18T02:02:53.347Z,10.30
2022-11-18T02:04:14.742Z,10.30
2022-11-18T02:05:36.855Z,10.40
2022-11-18T02:06:57.942Z,10.40
2022-11-18T02:08:20.667Z,10.40
2022-11-18T02:09:42.077Z,10.30
2022-11-18T02:11:02.610Z,10.40
2022-11-18T02:12:23.772Z,10.40
2022-11-18T02:13:44.688Z,10.40
2022-11-18T02:15:07.061Z,10.40
2022-11-18T02:16:45.198Z,10.30
2022-11-18T02:18:14.981Z,10.30
2022-11-18T02:20:27.033Z,10.30
2022-11-18T02:22:04.432Z,10.30
2022-11-18T02:24:07.005Z,10.30
2022-11-18T02:25:41.399Z,10.30
2022-11-18T02:27:52.360Z,10.30
2022-11-18T02:29:20.758Z,10.30
2022-11-18T02:30:53.005Z,10.30
2022-11-18T02:32:18.906Z,10.30
2022-11-18T02:33:49.241Z,10.30
2022-11-18T02:35:18.316Z,10.30
2022-11-18T02:36:44.605Z,10.30
2022-11-18T02:38:09.393Z,10.40
2022-11-18T02:39:35.651Z,10.40
2022-11-18T02:41:03.280Z,10.50
2022-11-18T02:42:26.429Z,10.40
2022-11-18T02:43:51.589Z,10.50
2022-11-18T02:45:17.673Z,10.50
2022-11-18T02:46:40.141Z,10.50
2022-11-18T02:48:06.954Z,10.40
2022-11-18T02:49:35.769Z,10.40
2022-11-18T02:50:58.153Z,10.40
2022-11-18T02:52:20.629Z,10.40
2022-11-18T02:53:43.410Z,10.40
2022-11-18T02:55:10.070Z,10.40
2022-11-18T02:56:32.817Z,10.40
2022-11-18T02:57:54.461Z,10.40
2022-11-18T02:59:10.763Z,10.40
2022-11-18T03:00:33.996Z,10.40
2022-11-18T03:01:54.988Z,10.40
2022-11-18T03:03:27.861Z,10.30
2022-11-18T03:04:53.206Z,10.40
2022-11-18T03:06:27.653Z,10.40
2022-11-18T03:07:54.813Z,10.40
2022-11-18T03:09:22.532Z,10.40
2022-11-18T03:10:52.708Z,10.40
2022-11-18T03:12:23.790Z,10.40
2022-11-18T03:14:03.042Z,10.40
2022-11-18T03:15:33.056Z,10.30
2022-11-18T03:17:03.454Z,10.30
2022-11-18T03:18:32.136Z,10.30
2022-11-18T03:20:07.814Z,10.30
2022-11-18T03:21:36.379Z,10.20
2022-11-18T03:23:04.177Z,10.20
2022-11-18T03:24:30.026Z,10.20
2022-11-18T03:25:55.408Z,10.20
2022-11-18T03:27:21.879Z,10.30
2022-11-18T03:28:48.526Z,10.30
2022-11-18T03:30:15.801Z,10.30
2022-11-18T03:31:41.993Z,10.30
2022-11-18T03:33:11.762Z,10.30
2022-11-18T03:34:37.593Z,10.40
2022-11-18T03:36:01.314Z,10.40
2022-11-18T03:37:24.762Z,10.30
2022-11-18T03:38:51.713Z,10.40
2022-11-18T03:40:17.712Z,10.40
2022-11-18T03:41:44.706Z,10.40
2022-11-18T03:43:13.173Z,10.40
2022-11-18T03:44:40.258Z,10.40
2022-11-18T03:46:06.392Z,10.40
2022-11-18T03:47:32.476Z,10.40
2022-11-18T03:48:56.706Z,10.50
2022-11-18T03:50:22.273Z,10.50
2022-11-18T03:51:48.262Z,10.50
2022-11-18T03:53:11.006Z,10.50
2022-11-18T03:54:35.389Z,10.50
2022-11-18T03:56:15.741Z,10.50
2022-11-18T03:57:45.737Z,10.50
2022-11-18T03:59:15.832Z,10.60
2022-11-18T04:00:41.954Z,10.50
2022-11-18T04:02:10.882Z,10.60
2022-11-18T04:03:31.823Z,10.60
2022-11-18T04:04:57.369Z,10.60
2022-11-18T04:06:30.077Z,10.60
2022-11-18T04:07:58.357Z,10.40
2022-11-18T04:09:23.787Z,10.60
2022-11-18T04:10:50.957Z,10.50
2022-11-18T04:12:17.247Z,10.50
2022-11-18T04:13:38.806Z,10.50
2022-11-18T04:14:59.742Z,10.50
2022-11-18T04:16:20.734Z,10.60
2022-11-18T04:17:42.662Z,10.50
2022-11-18T04:19:06.308Z,10.40
2022-11-18T04:20:30.018Z,10.60
2022-11-18T04:21:51.222Z,10.60
2022-11-18T04:23:11.822Z,10.50
2022-11-18T04:24:32.686Z,10.50
2022-11-18T04:25:53.480Z,10.50
2022-11-18T04:27:14.233Z,10.60
2022-11-18T04:28:35.031Z,10.50
2022-11-18T04:29:55.940Z,10.50
2022-11-18T04:31:16.659Z,10.50
2022-11-18T04:32:37.538Z,10.50
2022-11-18T04:33:58.594Z,10.50
2022-11-18T04:35:19.214Z,10.60
2022-11-18T04:36:41.255Z,10.50
2022-11-18T04:38:01.731Z,10.50
2022-11-18T04:39:22.542Z,10.50
2022-11-18T04:40:43.423Z,10.50
2022-11-18T04:42:04.845Z,10.60
2022-11-18T04:43:25.295Z,10.60
2022-11-18T04:44:46.004Z,10.60
2022-11-18T04:46:06.728Z,10.50
2022-11-18T04:47:27.694Z,10.50
2022-11-18T04:48:48.282Z,10.50
2022-11-18T04:50:10.061Z,10.40
2022-11-18T04:51:31.021Z,10.30
2022-11-18T04:52:53.202Z,10.30
2022-11-18T04:54:15.265Z,10.30
2022-11-18T04:55:36.323Z,10.30
2022-11-18T04:56:57.516Z,10.30
2022-11-18T04:58:18.275Z,10.40
2022-11-18T04:59:39.099Z,10.40
2022-11-18T05:00:59.947Z,10.40
2022-11-18T05:02:21.026Z,10.40
2022-11-18T05:03:45.084Z,10.40
2022-11-18T05:05:09.246Z,10.30
2022-11-18T05:06:31.155Z,10.40
2022-11-18T05:07:53.561Z,10.30
2022-11-18T05:09:14.478Z,10.30
2022-11-18T05:10:35.378Z,10.30
2022-11-18T05:11:55.959Z,10.40
2022-11-18T05:13:16.713Z,10.40
2022-11-18T05:14:37.815Z,10.40
2022-11-18T05:16:01.659Z,10.40
2022-11-18T05:17:22.834Z,10.40
2022-11-18T05:18:44.983Z,10.30
2022-11-18T05:20:07.448Z,10.40
2022-11-18T05:21:28.050Z,10.30
2022-11-18T05:22:48.713Z,10.30
2022-11-18T05:24:11.005Z,10.40
2022-11-18T05:25:31.847Z,10.40
2022-11-18T05:26:53.785Z,10.40
2022-11-18T05:28:14.465Z,10.30
2022-11-18T05:29:35.075Z,10.30
2022-11-18T05:30:55.848Z,10.30
2022-11-18T05:32:17.413Z,10.30
2022-11-18T05:33:38.709Z,10.30
2022-11-18T05:34:59.235Z,10.30
2022-11-18T05:36:21.399Z,10.30
2022-11-18T05:37:41.974Z,10.20
2022-11-18T05:39:02.736Z,10.30
2022-11-18T05:40:24.584Z,10.30
2022-11-18T05:41:45.697Z,10.30
2022-11-18T05:43:06.415Z,10.30
2022-11-18T05:44:27.033Z,10.30
2022-11-18T05:45:51.797Z,10.20
2022-11-18T05:47:13.101Z,10.20
2022-11-18T05:48:34.269Z,10.10
2022-11-18T05:49:54.800Z,10.20
2022-11-18T05:51:15.621Z,10.20
2022-11-18T05:52:36.606Z,10.10
2022-11-18T05:53:58.402Z,10.10
2022-11-18T05:55:20.851Z,10.20
2022-11-18T05:56:44.538Z,10.10
2022-11-18T05:58:05.096Z,10.00
2022-11-18T05:59:26.318Z,10.10
2022-11-18T06:00:50.773Z,10.00
2022-11-18T06:02:15.596Z,10.00
2022-11-18T06:03:40.081Z,10.10
2022-11-18T06:05:04.252Z,10.10
2022-11-18T06:06:25.381Z,10.10
2022-11-18T06:07:46.473Z,10.00
2022-11-18T06:09:10.460Z,10.10
2022-11-18T06:10:36.926Z,10.00
2022-11-18T06:12:02.557Z,10.00
2022-11-18T06:13:30.223Z,10.00
2022-11-18T06:14:56.015Z,9.90
2022-11-18T06:16:19.337Z,9.90
2022-11-18T06:17:45.732Z,10.00
2022-11-18T06:19:06.949Z,10.00
2022-11-18T06:20:28.031Z,10.00
2022-11-18T06:21:49.503Z,10.00
2022-11-18T06:23:10.213Z,10.00
2022-11-18T06:24:30.938Z,10.00
2022-11-18T06:25:52.045Z,10.00
2022-11-18T06:27:15.801Z,10.10
2022-11-18T06:28:37.081Z,10.00
2022-11-18T06:29:57.499Z,10.00
2022-11-18T06:31:18.153Z,10.00
2022-11-18T06:32:39.099Z,10.10
2022-11-18T06:33:59.717Z,10.00
2022-11-18T06:35:20.586Z,10.00
2022-11-18T06:36:41.413Z,10.10
2022-11-18T06:38:02.098Z,10.00
2022-11-18T06:39:22.854Z,10.10
2022-11-18T06:40:43.765Z,10.00
2022-11-18T06:42:04.795Z,10.00
2022-11-18T06:43:27.496Z,10.10
2022-11-18T06:44:48.169Z,10.10
2022-11-18T06:46:12.049Z,10.00
2022-11-18T06:47:32.997Z,10.00
2022-11-18T06:48:54.028Z,10.10
2022-11-18T06:50:14.792Z,10.10
2022-11-18T06:51:35.457Z,10.10
2022-11-18T06:52:56.552Z,10.10
2022-11-18T06:54:18.660Z,10.10
2022-11-18T06:55:39.596Z,10.10
2022-11-18T06:57:00.329Z,10.00
2022-11-18T06:58:21.145Z,10.00
2022-11-18T06:59:43.410Z,10.00
2022-11-18T07:01:12.167Z,10.00
2022-11-18T07:02:35.633Z,10.00
2022-11-18T07:03:59.199Z,10.10
2022-11-18T07:05:20.236Z,10.00
2022-11-18T07:06:41.591Z,10.00
2022-11-18T07:08:02.794Z,10.00
2022-11-18T07:09:23.966Z,10.00
2022-11-18T07:10:53.680Z,10.00
2022-11-18T07:12:14.699Z,10.10
2022-11-18T07:13:40.584Z,10.20
2022-11-18T07:15:08.605Z,10.10
2022-11-18T07:16:29.820Z,10.10
2022-11-18T07:17:50.720Z,10.10
2022-11-18T07:19:13.525Z,10.10
2022-11-18T07:20:35.367Z,10.20
2022-11-18T07:21:56.402Z,10.20
2022-11-18T07:23:17.332Z,10.20
2022-11-18T07:24:38.206Z,10.30
2022-11-18T07:25:59.747Z,10.30
2022-11-18T07:27:21.042Z,10.30
2022-11-18T07:28:42.254Z,10.30
2022-11-18T07:30:05.812Z,10.30
2022-11-18T07:31:26.747Z,10.20
2022-11-18T07:32:47.630Z,10.30
2022-11-18T07:34:17.204Z,10.20
2022-11-18T07:35:38.045Z,10.20
2022-11-18T07:36:58.917Z,10.20
2022-11-18T07:38:19.772Z,10.30
2022-11-18T07:39:40.749Z,10.40
2022-11-18T07:41:06.649Z,10.30
2022-11-18T07:42:27.429Z,10.40
2022-11-18T07:43:49.746Z,10.40
2022-11-18T07:45:12.509Z,10.40
2022-11-18T07:46:35.472Z,10.50
2022-11-18T07:47:56.178Z,10.40
2022-11-18T07:49:17.398Z,10.40
2022-11-18T07:50:41.951Z,10.60
2022-11-18T07:52:05.136Z,10.60
2022-11-18T07:53:26.665Z,10.60
2022-11-18T07:54:47.444Z,10.60
2022-11-18T07:56:09.033Z,10.50
2022-11-18T07:57:31.070Z,10.50
2022-11-18T07:58:53.902Z,10.50
2022-11-18T08:00:17.660Z,10.40
2022-11-18T08:01:38.526Z,10.50
2022-11-18T08:02:59.251Z,10.60
2022-11-18T08:04:20.417Z,10.50
2022-11-18T08:05:41.689Z,10.50
2022-11-18T08:07:02.806Z,10.60
2022-11-18T08:08:24.293Z,10.50
2022-11-18T08:09:45.052Z,10.60
2022-11-18T08:11:09.089Z,10.60
2022-11-18T08:12:30.161Z,10.60
2022-11-18T08:13:51.742Z,10.70
2022-11-18T08:15:12.366Z,10.70
2022-11-18T08:16:34.531Z,10.70
2022-11-18T08:17:55.278Z,10.70
2022-11-18T08:19:16.799Z,10.70
2022-11-18T08:20:37.749Z,10.70
2022-11-18T08:21:59.156Z,10.70
2022-11-18T08:23:20.315Z,10.70
2022-11-18T08:24:40.893Z,10.70
2022-11-18T08:26:03.144Z,10.70
2022-11-18T08:27:24.285Z,10.80
2022-11-18T08:28:46.027Z,10.80
2022-11-18T08:30:08.854Z,10.80
2022-11-18T08:31:30.690Z,10.80
2022-11-18T08:32:52.652Z,11.00
2022-11-18T08:34:13.153Z,10.90
2022-11-18T08:35:35.104Z,11.00
2022-11-18T08:36:56.026Z,11.00
2022-11-18T08:38:17.424Z,10.90
2022-11-18T08:39:38.395Z,11.00
2022-11-18T08:40:59.214Z,11.00
2022-11-18T08:42:23.253Z,11.00
2022-11-18T08:43:45.397Z,11.00
2022-11-18T08:45:07.906Z,11.10
2022-11-18T08:46:28.647Z,11.20
2022-11-18T08:47:49.497Z,11.20
2022-11-18T08:49:11.870Z,11.10
2022-11-18T08:50:32.361Z,10.90
2022-11-18T08:51:53.085Z,11.00
2022-11-18T08:53:15.645Z,11.00
2022-11-18T08:54:36.838Z,11.00
2022-11-18T08:55:58.304Z,11.10
2022-11-18T08:57:20.304Z,11.10
2022-11-18T08:58:40.893Z,11.00
2022-11-18T09:00:02.393Z,11.10
2022-11-18T09:01:23.532Z,11.10
2022-11-18T09:02:44.824Z,11.10
2022-11-18T09:04:08.933Z,11.20
2022-11-18T09:05:32.148Z,11.20
2022-11-18T09:06:53.297Z,11.20
2022-11-18T09:08:14.466Z,11.10
2022-11-18T09:09:35.174Z,11.20
2022-11-18T09:10:56.025Z,11.10
2022-11-18T09:12:16.905Z,11.10
2022-11-18T09:14:39.062Z,11.10
2022-11-18T09:15:19.492Z,11.20
2022-11-18T09:16:41.950Z,11.20
2022-11-18T09:18:02.837Z,11.20
2022-11-18T09:19:46.305Z,11.20
2022-11-18T09:21:09.632Z,11.30
2022-11-18T09:22:30.335Z,11.30
2022-11-18T09:23:51.527Z,11.40
2022-11-18T09:25:12.126Z,11.30
2022-11-18T09:26:33.206Z,11.30
2022-11-18T09:27:53.752Z,11.30
2022-11-18T09:29:14.904Z,11.30
2022-11-18T09:30:35.963Z,11.30
2022-11-18T09:31:56.596Z,11.30
2022-11-18T09:33:20.566Z,11.20
2022-11-18T09:34:41.628Z,11.20
2022-11-18T09:36:02.606Z,11.30
2022-11-18T09:37:24.657Z,11.30
2022-11-18T09:38:49.844Z,11.20
2022-11-18T09:40:17.420Z,11.20
2022-11-18T09:41:45.855Z,11.20
2022-11-18T09:43:19.137Z,11.30
2022-11-18T09:44:54.130Z,11.30
2022-11-18T09:46:26.666Z,11.30
2022-11-18T09:47:48.306Z,11.30
2022-11-18T09:49:15.240Z,11.30
2022-11-18T09:50:55.745Z,11.20
2022-11-18T09:52:21.653Z,11.20
2022-11-18T09:53:45.744Z,11.30
2022-11-18T09:55:13.442Z,11.40
2022-11-18T09:56:34.287Z,11.40
2022-11-18T09:57:57.956Z,11.40
2022-11-18T09:59:21.391Z,11.40
2022-11-18T10:00:44.142Z,11.40
2022-11-18T10:02:41.578Z,11.50
2022-11-18T10:04:02.558Z,11.40
2022-11-18T10:05:26.209Z,11.40
2022-11-18T10:06:48.518Z,11.50
2022-11-18T10:08:25.248Z,11.50
2022-11-18T10:09:51.601Z,11.40
2022-11-18T10:11:18.020Z,11.50
2022-11-18T10:12:55.553Z,11.60
2022-11-18T10:14:31.695Z,11.50
2022-11-18T10:16:23.052Z,11.60
2022-11-18T10:18:37.927Z,11.50
2022-11-18T10:20:42.097Z,11.50
2022-11-18T10:22:27.865Z,11.60
2022-11-18T10:23:54.948Z,11.50
2022-11-18T10:25:18.300Z,11.60
2022-11-18T10:26:41.247Z,11.60
2022-11-18T10:28:23.337Z,11.60
2022-11-18T10:29:45.869Z,11.70
2022-11-18T10:31:12.973Z,11.70
2022-11-18T10:32:33.794Z,11.80
2022-11-18T10:34:00.671Z,11.70
2022-11-18T10:35:27.060Z,11.80
2022-11-18T10:37:00.508Z,11.80
2022-11-18T10:38:21.445Z,11.80
2022-11-18T10:39:50.657Z,11.80
2022-11-18T10:41:15.732Z,11.80
2022-11-18T10:42:42.048Z,11.80
2022-11-18T10:44:11.850Z,11.90
2022-11-18T10:45:33.376Z,11.90
2022-11-18T10:46:54.367Z,11.80
2022-11-18T10:48:18.052Z,11.90
2022-11-18T10:49:39.561Z,11.90
2022-11-18T10:51:24.279Z,12.00
2022-11-18T10:52:53.183Z,12.00
2022-11-18T10:54:17.758Z,12.00
2022-11-18T10:55:38.708Z,12.10
2022-11-18T10:57:05.636Z,12.20
2022-11-18T10:58:28.755Z,12.00
2022-11-18T10:59:52.053Z,12.00
2022-11-18T11:01:21.470Z,12.00
2022-11-18T11:02:42.897Z,11.90
2022-11-18T11:04:11.779Z,11.90
2022-11-18T11:05:32.860Z,11.80
2022-11-18T11:06:56.829Z,11.90
2022-11-18T11:08:36.939Z,11.90
2022-11-18T11:10:19.421Z,11.80
2022-11-18T11:11:54.765Z,11.90
2022-11-18T11:13:18.082Z,11.90
2022-11-18T11:14:52.042Z,11.90
2022-11-18T11:16:21.111Z,11.90
2022-11-18T11:17:52.264Z,11.90
2022-11-18T11:19:14.563Z,11.80
2022-11-18T11:20:35.699Z,11.90
2022-11-18T11:21:57.805Z,11.90
2022-11-18T11:23:23.423Z,11.90
2022-11-18T11:24:45.273Z,11.90
2022-11-18T11:28:17.169Z,11.90
2022-11-18T11:30:15.439Z,11.80
2022-11-18T11:31:49.563Z,11.90
2022-11-18T11:33:42.050Z,11.90
2022-11-18T11:35:12.591Z,11.90
2022-11-18T11:36:42.572Z,11.90
2022-11-18T11:38:13.575Z,11.90
2022-11-18T11:40:08.526Z,11.80
2022-11-18T11:41:36.474Z,11.80
2022-11-18T11:43:25.558Z,11.90
2022-11-18T11:45:01.406Z,12.00
2022-11-18T11:46:34.982Z,12.10
2022-11-18T11:48:22.630Z,12.20
2022-11-18T11:49:53.087Z,12.10
2022-11-18T11:51:22.512Z,12.10
2022-11-18T11:52:55.480Z,12.10
2022-11-18T11:54:37.393Z,12.00
2022-11-18T11:56:04.379Z,12.00
2022-11-18T11:57:39.837Z,12.00
2022-11-18T11:59:17.746Z,11.90
2022-11-18T12:00:44.904Z,11.90
2022-11-18T12:02:54.371Z,12.00
2022-11-18T12:04:32.635Z,12.10
2022-11-18T12:05:53.269Z,12.10
2022-11-18T12:07:19.435Z,12.20
2022-11-18T12:08:59.682Z,12.20
2022-11-18T12:10:36.422Z,12.20
2022-11-18T12:12:07.951Z,12.20
2022-11-18T12:13:40.661Z,12.20
2022-11-18T12:15:18.474Z,12.20
2022-11-18T12:16:49.095Z,12.10
2022-11-18T12:18:35.238Z,12.20
2022-11-18T12:19:55.478Z,12.10
2022-11-18T12:21:49.413Z,12.10
2022-11-18T12:23:12.103Z,12.10
2022-11-18T12:24:37.440Z,12.10
2022-11-18T12:26:03.598Z,12.10
2022-11-18T12:27:58.887Z,12.10
2022-11-18T12:29:23.157Z,12.10
2022-11-18T12:30:43.677Z,12.00
2022-11-18T12:32:12.771Z,12.10
2022-11-18T12:33:42.526Z,12.00
2022-11-18T12:35:05.850Z,12.00
2022-11-18T12:36:27.362Z,12.10
2022-11-18T12:38:03.670Z,12.20
2022-11-18T12:39:47.878Z,12.10
2022-11-18T12:41:38.453Z,12.10
2022-11-18T12:42:58.928Z,11.90
2022-11-18T12:44:23.379Z,12.10
2022-11-18T12:45:58.849Z,12.10
2022-11-18T12:47:59.609Z,12.10
2022-11-18T12:50:11.606Z,12.10
2022-11-18T12:51:41.631Z,12.00
2022-11-18T12:53:02.200Z,12.00
2022-11-18T12:54:31.726Z,11.90
2022-11-18T12:55:52.127Z,11.90
2022-11-18T12:57:18.669Z,11.90
2022-11-18T12:58:44.771Z,11.90
2022-11-18T13:00:17.870Z,11.90
2022-11-18T13:01:38.549Z,11.90
2022-11-18T13:03:01.813Z,11.90
2022-11-18T13:04:22.017Z,12.00
2022-11-18T13:05:42.758Z,11.90
2022-11-18T13:07:03.957Z,11.90
2022-11-18T13:08:24.701Z,11.90
2022-11-18T13:09:45.400Z,11.80
2022-11-18T13:11:11.262Z,11.80
2022-11-18T13:12:31.983Z,11.80
2022-11-18T13:13:54.499Z,11.80
2022-11-18T13:15:15.481Z,11.80
2022-11-18T13:16:38.670Z,11.80
2022-11-18T13:18:10.915Z,11.90
2022-11-18T13:19:31.489Z,11.80
2022-11-18T13:20:55.828Z,11.80
2022-11-18T13:22:18.983Z,11.90
2022-11-18T13:23:39.614Z,11.90
2022-11-18T13:25:00.369Z,11.90
2022-11-18T13:26:25.542Z,11.90
2022-11-18T13:27:49.987Z,11.90
2022-11-18T13:29:29.198Z,11.90
2022-11-18T13:30:54.199Z,11.90
2022-11-18T13:32:21.472Z,11.80
2022-11-18T13:33:43.987Z,11.80
2022-11-18T13:35:12.112Z,11.80
2022-11-18T13:36:32.641Z,11.80
2022-11-18T13:37:55.201Z,11.80
2022-11-18T13:39:21.549Z,11.80
2022-11-18T13:40:45.393Z,11.80
2022-11-18T13:42:07.798Z,11.70
2022-11-18T13:43:28.859Z,11.80
2022-11-18T13:44:53.987Z,11.80
2022-11-18T13:46:17.678Z,11.80
2022-11-18T13:47:41.463Z,11.70
2022-11-18T13:49:03.749Z,11.80
2022-11-18T13:50:27.590Z,11.90
2022-11-18T13:51:48.345Z,11.90
2022-11-18T13:53:17.646Z,11.90
2022-11-18T13:54:38.166Z,11.90
2022-11-18T13:56:00.541Z,11.90
2022-11-18T13:57:23.393Z,11.80
2022-11-18T14:00:28.163Z,11.90
2022-11-18T14:01:55.143Z,11.80
2022-11-18T14:03:22.444Z,11.90
2022-11-18T14:04:52.696Z,11.90
2022-11-18T14:06:24.452Z,11.90
2022-11-18T14:07:52.522Z,11.90
2022-11-18T14:09:20.489Z,11.90
2022-11-18T14:10:42.657Z,11.80
2022-11-18T14:12:05.197Z,11.80
2022-11-18T14:13:28.038Z,11.80
2022-11-18T14:14:48.926Z,11.80
2022-11-18T14:16:30.591Z,11.90
2022-11-18T14:17:53.333Z,11.90
2022-11-18T14:19:28.425Z,11.90
2022-11-18T14:20:55.546Z,11.90
2022-11-18T14:22:18.652Z,11.90
2022-11-18T14:23:43.133Z,11.90
2022-11-18T14:25:16.672Z,11.90
2022-11-18T14:26:38.440Z,11.90
2022-11-18T14:28:11.020Z,11.80
2022-11-18T14:29:31.323Z,11.90
2022-11-18T14:31:00.928Z,12.00
2022-11-18T14:32:21.160Z,12.00
2022-11-18T14:33:41.342Z,12.00
2022-11-18T14:35:01.970Z,11.90
2022-11-18T14:36:24.683Z,12.00
2022-11-18T14:37:45.374Z,12.00
2022-11-18T14:39:26.010Z,12.00
2022-11-18T14:40:47.548Z,12.10
2022-11-18T14:42:11.408Z,12.10
2022-11-18T14:43:32.019Z,12.10
2022-11-18T14:44:52.380Z,12.10
2022-11-18T14:46:16.353Z,12.20
2022-11-18T14:47:37.111Z,12.20
2022-11-18T14:48:57.711Z,12.10
2022-11-18T14:50:18.401Z,12.10
2022-11-18T14:51:40.129Z,12.10
2022-11-18T14:53:00.634Z,12.10
2022-11-18T14:54:26.392Z,12.10
2022-11-18T14:55:50.090Z,12.20
2022-11-18T14:57:14.212Z,12.10
2022-11-18T14:58:34.793Z,12.10
2022-11-18T14:59:55.344Z,12.10
2022-11-18T15:01:16.032Z,12.00
2022-11-18T15:02:37.005Z,12.00
2022-11-18T15:03:58.018Z,12.00
2022-11-18T15:05:18.564Z,12.10
2022-11-18T15:06:40.563Z,12.00
2022-11-18T15:08:01.105Z,12.00
2022-11-18T15:09:21.737Z,12.10
2022-11-18T15:10:41.990Z,12.10
2022-11-18T15:12:02.467Z,12.10
2022-11-18T15:13:23.198Z,12.10
2022-11-18T15:14:43.833Z,12.00
2022-11-18T15:16:11.898Z,11.90
2022-11-18T15:17:35.516Z,11.90
2022-11-18T15:19:00.463Z,11.90
2022-11-18T15:20:22.153Z,12.00
2022-11-18T15:21:44.670Z,12.00
2022-11-18T15:23:05.225Z,12.00
2022-11-18T15:24:25.683Z,12.00
2022-11-18T15:25:46.051Z,12.00
2022-11-18T15:27:06.730Z,11.90
2022-11-18T15:28:27.421Z,11.90
2022-11-18T15:29:48.077Z,11.90
2022-11-18T15:31:08.504Z,11.90
2022-11-18T15:32:29.313Z,11.90
2022-11-18T15:33:50.140Z,11.90
2022-11-18T15:35:12.311Z,11.90
2022-11-18T15:36:33.038Z,11.80
2022-11-18T15:37:55.035Z,11.80
2022-11-18T15:39:15.974Z,11.80
2022-11-18T15:40:36.440Z,11.70
2022-11-18T15:41:57.195Z,11.80
2022-11-18T15:43:17.771Z,11.70
2022-11-18T15:44:38.523Z,11.80
2022-11-18T15:45:59.793Z,11.90
2022-11-18T15:47:20.538Z,11.90
2022-11-18T15:48:41.175Z,11.90
2022-11-18T15:50:01.709Z,11.90
2022-11-18T15:51:22.794Z,12.00
2022-11-18T15:52:43.669Z,12.00
2022-11-18T15:54:06.369Z,12.00
2022-11-18T15:55:27.132Z,12.00
2022-11-18T15:56:47.397Z,12.00
2022-11-18T15:58:07.930Z,11.90
2022-11-18T15:59:28.755Z,11.90
2022-11-18T16:00:49.491Z,11.90
2022-11-18T16:02:10.679Z,11.90
2022-11-18T16:03:30.997Z,11.90
2022-11-18T16:04:51.955Z,11.90
2022-11-18T16:06:12.394Z,11.90
2022-11-18T16:07:33.201Z,11.90
2022-11-18T16:08:59.534Z,11.90
2022-11-18T16:10:21.997Z,11.80
2022-11-18T16:11:42.779Z,11.70
2022-11-18T16:13:03.590Z,11.80
2022-11-18T16:14:24.338Z,11.80
2022-11-18T16:15:44.904Z,11.80
2022-11-18T16:17:05.705Z,11.70
2022-11-18T16:18:26.011Z,11.70
2022-11-18T16:19:46.635Z,11.70
2022-11-18T16:21:07.347Z,11.70
2022-11-18T16:22:27.964Z,11.70
2022-11-18T16:23:48.444Z,11.70
2022-11-18T16:25:09.683Z,11.70
2022-11-18T16:26:32.561Z,11.70
2022-11-18T16:27:53.316Z,11.60
2022-11-18T16:29:14.324Z,11.60
2022-11-18T16:30:34.878Z,11.70
2022-11-18T16:31:55.177Z,11.60
2022-11-18T16:33:15.597Z,11.60
2022-11-18T16:34:38.893Z,11.60
2022-11-18T16:35:59.503Z,11.60
2022-11-18T16:37:20.232Z,11.60
2022-11-18T16:38:40.787Z,11.60
2022-11-18T16:40:01.414Z,11.60
2022-11-18T16:41:21.738Z,11.50
2022-11-18T16:42:43.704Z,11.50
2022-11-18T16:44:06.075Z,11.50
2022-11-18T16:45:26.508Z,11.50
2022-11-18T16:46:48.242Z,11.50
2022-11-18T16:48:08.680Z,11.50
2022-11-18T16:49:29.647Z,11.50
2022-11-18T16:51:00.031Z,11.50
2022-11-18T16:52:21.002Z,11.50
2022-11-18T16:53:41.404Z,11.50
2022-11-18T16:55:02.093Z,11.50
2022-11-18T16:56:24.270Z,11.50
2022-11-18T16:57:46.115Z,11.50
2022-11-18T16:59:11.847Z,11.50
2022-11-18T17:00:59.922Z,11.50
2022-11-18T17:02:13.305Z,11.50
2022-11-18T17:03:34.033Z,11.50
2022-11-18T17:04:56.095Z,11.50
2022-11-18T17:06:16.537Z,11.40
2022-11-18T17:07:38.751Z,11.40
2022-11-18T17:08:59.789Z,11.40
2022-11-18T17:10:22.612Z,11.40
2022-11-18T17:11:43.175Z,11.40
2022-11-18T17:13:04.805Z,11.50
2022-11-18T17:14:25.778Z,11.50
2022-11-18T17:15:46.567Z,11.50
2022-11-18T17:17:07.739Z,11.50
2022-11-18T17:18:28.461Z,11.50
2022-11-18T17:19:49.151Z,11.50
2022-11-18T17:21:11.523Z,11.40
2022-11-18T17:22:32.056Z,11.40
2022-11-18T17:23:53.083Z,11.40
2022-11-18T17:25:13.477Z,11.50
2022-11-18T17:26:34.293Z,11.50
2022-11-18T17:27:54.817Z,11.50
2022-11-18T17:29:17.330Z,11.50
2022-11-18T17:30:39.210Z,11.50
2022-11-18T17:31:59.808Z,11.50
2022-11-18T17:33:20.737Z,11.50
2022-11-18T17:34:41.250Z,11.50
2022-11-18T17:36:03.240Z,11.50
2022-11-18T17:37:23.698Z,11.50
2022-11-18T17:38:46.632Z,11.50
2022-11-18T17:40:09.044Z,11.50
2022-11-18T17:41:29.519Z,11.50
2022-11-18T17:42:50.513Z,11.40
2022-11-18T17:44:11.994Z,11.40
2022-11-18T17:45:34.240Z,11.50
2022-11-18T17:46:54.976Z,11.50
2022-11-18T17:48:15.574Z,11.50
2022-11-18T17:49:36.081Z,11.50
2022-11-18T17:51:03.417Z,11.60
2022-11-18T17:52:24.063Z,11.60
2022-11-18T17:53:44.708Z,11.60
2022-11-18T17:55:06.232Z,11.60
2022-11-18T17:56:26.705Z,11.60
2022-11-18T17:57:47.490Z,11.50
2022-11-18T17:59:08.527Z,11.50
2022-11-18T18:00:28.967Z,11.50
2022-11-18T18:01:57.386Z,11.60
2022-11-18T18:03:19.799Z,11.60
2022-11-18T18:04:40.429Z,11.60
2022-11-18T18:06:01.644Z,11.60
2022-11-18T18:07:22.164Z,11.50
2022-11-18T18:08:42.957Z,11.60
2022-11-18T18:10:04.192Z,11.60
2022-11-18T18:11:24.990Z,11.60
2022-11-18T18:12:45.478Z,11.60
2022-11-18T18:14:06.114Z,11.60
2022-11-18T18:15:26.567Z,11.60
2022-11-18T18:16:48.497Z,11.70
2022-11-18T18:18:10.034Z,11.70
2022-11-18T18:19:30.557Z,11.70
2022-11-18T18:20:50.811Z,11.80
2022-11-18T18:22:11.520Z,11.80
2022-11-18T18:23:32.263Z,11.80
2022-11-18T18:24:52.658Z,11.80
2022-11-18T18:26:13.261Z,11.70
2022-11-18T18:27:33.866Z,11.70
2022-11-18T18:28:54.579Z,11.70
2022-11-18T18:30:15.699Z,11.70